Impacts METAR Board
IDs:

KDCA - Washington/National, VA, US

Updated at: 2200 UTC 01 Feb 2023
Potential Impact None Slight Moderate High
Time 01/10Z 01/11Z 01/12Z 01/13Z 01/14Z 01/15Z 01/16Z 01/17Z 01/18Z 01/19Z 01/20Z 01/21Z 01/22Z
Temp34 34 34 34 34 36 37 39 39 40 41 39 37
Dewpt31 30 27 27 21 21 19 20 17 17 17 13 14
Altim30.23 30.24 30.27 30.29 30.31 30.34 30.35 30.34 30.32 30.31 30.30 30.30 30.31
VIS7 9 10 9 10 10 10 10 10 10 10 10 10
CIG50 70 95 90 110 110 -- -- 240 250 250 250 --
CoverOVCOVCOVCOVCBKNBKNSCTSCTBKNBKNBKNBKNSCT
FltCatVFRVFRVFRVFRVFRVFRVFRVFRVFRVFRVFRVFRVFR
WX-SN-SN----------------------
WDir35010340350340340340360340330320330340
WSpd8 10 8 12 14 10 12 11 10 10 4 11 10
WGst-- -- -- -- -- -- -- -- -- -- -- -- --
Raw hourly METARs
KDCA 010952Z 35008KT 7SM -SN FEW015 BKN050 OVC070 01/M01 A3023 RMK AO2 SLP237 P0001 T00111006
KDCA 011052Z 01010KT 9SM -SN FEW017 BKN070 OVC085 01/M01 A3024 RMK AO2 SLP238 P0000 T00111011
KDCA 011152Z 34008KT 10SM FEW075 OVC095 01/M03 A3027 RMK AO2 SNE17 SLP248 P0000 60004 70021 T00111028 10028 20006 53014
KDCA 011252Z 35012KT 9SM FEW025 OVC090 01/M03 A3029 RMK AO2 SLP257 T00111028
KDCA 011352Z 34014KT 10SM FEW025 SCT090 BKN110 BKN200 01/M06 A3031 RMK AO2 SLP263 VIRGA S T00111061
KDCA 011452Z 34010KT 10SM SCT090 BKN110 BKN200 02/M06 A3034 RMK AO2 SLP274 T00221061 53026
KDCA 011552Z 34012KT 10SM FEW120 SCT200 03/M07 A3035 RMK AO2 SLP277 T00281072
KDCA 011652Z 36011KT 10SM FEW100 SCT200 04/M07 A3034 RMK AO2 SLP272 T00391067
KDCA 011752Z 34010KT 10SM BKN240 04/M08 A3032 RMK AO2 SLP265 T00391083 10044 20006 58008
KDCA 011852Z 33010KT 10SM BKN250 04/M08 A3031 RMK AO2 SLP262 T00441083
KDCA 011952Z 32004KT 10SM BKN250 05/M08 A3030 RMK AO2 SLP258 T00501083
KDCA 012052Z 33011KT 10SM BKN250 04/M11 A3030 RMK AO2 SLP259 T00391106 55006
KDCA 012152Z 34010KT 10SM SCT250 03/M10 A3031 RMK AO2 SLP264 T00281100



Page loaded:  22:19 UTC  |   02:19 PM Pacific  |   03:19 PM Mountain  |   04:19 PM Central  |   05:19 PM Eastern

 

ADVISORIES

FORECASTS

FORECASTS

OBSERVATIONS

USER TOOLS

ABOUT US